Time;durP1;ratioP1;P1;durP2;ratioP2;P2;SDS_P1;SDS_P2;PMS_P1;PMS_P2;Temp;Humidity;BMP_temperature;BMP_pressure;BME280_temperature;BME280_humidity;BME280_pressure;Samples;Min_cycle;Max_cycle;Signal;HPM_P1;HPM_P2
2022/03/17 00:01:19;;;;;;;68.05;37.95;;;;;;;;;;5117898;28;20401;-83
2022/03/17 00:04:05;;;;;;;60.78;33.30;;;;;;;;;;5118133;28;20501;-82
2022/03/17 00:06:50;;;;;;;61.65;34.20;;;;;;;;;;5117634;28;20032;-81
2022/03/17 00:09:36;;;;;;;59.33;34.25;;;;;;;;;;5095311;28;20039;-83
2022/03/17 00:12:22;;;;;;;63.70;31.70;;;;;;;;;;5118080;28;20044;-83
2022/03/17 00:15:08;;;;;;;51.47;26.05;;;;;;;;;;5102318;28;20420;-83
2022/03/17 00:17:53;;;;;;;48.88;29.85;;;;;;;;;;5117945;28;20416;-83
2022/03/17 00:20:39;;;;;;;69.82;37.10;;;;;;;;;;5117702;28;20056;-83
2022/03/17 00:23:24;;;;;;;55.53;31.00;;;;;;;;;;5117688;28;20043;-82
2022/03/17 00:26:10;;;;;;;81.80;34.90;;;;;;;;;;5117685;28;20040;-82
2022/03/17 00:28:55;;;;;;;56.28;28.65;;;;;;;;;;5117667;28;20059;-83
2022/03/17 00:31:41;;;;;;;66.97;32.40;;;;;;;;;;5117669;28;20410;-83
2022/03/17 00:34:27;;;;;;;71.20;34.45;;;;;;;;;;5117482;28;20385;-82
2022/03/17 00:37:12;;;;;;;83.32;37.22;;;;;;;;;;5117905;28;20040;-83
2022/03/17 00:39:58;;;;;;;66.30;34.20;;;;;;;;;;5118053;28;20039;-82
2022/03/17 00:42:43;;;;;;;48.55;27.88;;;;;;;;;;5108931;28;20039;-82
2022/03/17 00:45:28;;;;;;;42.83;23.73;;;;;;;;;;5117497;28;20384;-82
2022/03/17 00:48:13;;;;;;;34.58;22.80;;;;;;;;;;5117419;28;20043;-83
2022/03/17 00:50:59;;;;;;;41.80;22.92;;;;;;;;;;5108223;28;20044;-83
2022/03/17 00:53:46;;;;;;;34.67;22.02;;;;;;;;;;5125570;28;20047;-82
2022/03/17 00:56:32;;;;;;;37.53;22.02;;;;;;;;;;5119661;28;20044;-81
2022/03/17 00:59:17;;;;;;;33.60;21.23;;;;;;;;;;5102025;28;20047;-83
2022/03/17 01:02:04;;;;;;;36.45;22.85;;;;;;;;;;5116627;28;20051;-83
2022/03/17 01:04:49;;;;;;;37.58;23.65;;;;;;;;;;5116904;28;20044;-83
2022/03/17 01:07:34;;;;;;;42.67;23.73;;;;;;;;;;5115890;28;20040;-82
2022/03/17 01:10:20;;;;;;;38.30;22.92;;;;;;;;;;5116660;28;20044;-81
2022/03/17 01:13:05;;;;;;;41.58;23.13;;;;;;;;;;5108000;28;20043;-85
2022/03/17 01:15:50;;;;;;;41.83;23.98;;;;;;;;;;5115915;28;20043;-86
2022/03/17 01:18:35;;;;;;;39.67;22.88;;;;;;;;;;5115956;28;20039;-87
2022/03/17 01:21:20;;;;;;;37.47;22.70;;;;;;;;;;5101349;28;20055;-85
2022/03/17 01:24:06;;;;;;;42.10;23.33;;;;;;;;;;5116476;28;20047;-87
2022/03/17 01:26:52;;;;;;;44.20;24.02;;;;;;;;;;5116443;28;20051;-87
2022/03/17 01:29:40;;;;;;;42.85;24.15;;;;;;;;;;5101142;28;20044;-87
2022/03/17 01:32:26;;;;;;;43.83;25.27;;;;;;;;;;5116213;28;20047;-87
2022/03/17 01:35:11;;;;;;;41.70;24.40;;;;;;;;;;5107531;28;20043;-85
2022/03/17 01:37:58;;;;;;;43.50;25.52;;;;;;;;;;5115786;28;20043;-86
2022/03/17 01:40:44;;;;;;;51.58;25.83;;;;;;;;;;5116203;28;20051;-85
2022/03/17 01:43:29;;;;;;;53.80;25.00;;;;;;;;;;5115533;28;20040;-86
2022/03/17 01:46:15;;;;;;;44.92;23.75;;;;;;;;;;5107224;28;20043;-87
2022/03/17 01:49:01;;;;;;;42.05;22.73;;;;;;;;;;5115834;28;20036;-86
2022/03/17 01:51:47;;;;;;;35.10;21.60;;;;;;;;;;5116122;28;20055;-86
2022/03/17 01:54:34;;;;;;;40.38;21.77;;;;;;;;;;5116001;28;20035;-84
2022/03/17 01:57:21;;;;;;;45.08;23.70;;;;;;;;;;5114923;28;20048;-86
2022/03/17 02:00:13;;;;;;;34.85;20.35;;;;;;;;;;5114493;28;20489;-85
2022/03/17 02:03:02;;;;;;;21.25;11.90;;;;;;;;;;5100116;28;20048;-86
2022/03/17 02:05:47;;;;;;;25.33;17.70;;;;;;;;;;5114687;28;20266;-85
2022/03/17 02:08:36;;;;;;;28.27;17.83;;;;;;;;;;5099325;28;20047;-86
2022/03/17 02:14:25;;;;;;;29.85;20.67;;;;;;;;;;5115498;28;20044;-84
2022/03/17 02:17:10;;;;;;;24.48;16.05;;;;;;;;;;5115333;28;20472;-84
2022/03/17 02:19:58;;;;;;;31.42;20.80;;;;;;;;;;5115363;28;20036;-84
2022/03/17 02:22:48;;;;;;;33.30;20.38;;;;;;;;;;5115440;28;20044;-86
2022/03/17 02:25:34;;;;;;;31.10;19.38;;;;;;;;;;5115209;28;20043;-85
2022/03/17 02:28:21;;;;;;;30.75;20.50;;;;;;;;;;5115213;28;20039;-86
2022/03/17 02:31:06;;;;;;;33.50;21.38;;;;;;;;;;5115109;28;20207;-85
2022/03/17 02:33:52;;;;;;;32.95;19.90;;;;;;;;;;5115085;28;20048;-85
2022/03/17 02:36:46;;;;;;;31.33;19.70;;;;;;;;;;5115184;28;20408;-85
2022/03/17 02:39:32;;;;;;;26.08;17.35;;;;;;;;;;5115392;28;20047;-85
2022/03/17 02:42:18;;;;;;;35.65;21.40;;;;;;;;;;5106404;28;20043;-85
2022/03/17 02:45:06;;;;;;;26.48;15.57;;;;;;;;;;5114673;28;20043;-85
2022/03/17 02:47:51;;;;;;;30.02;19.55;;;;;;;;;;5106468;28;20035;-85
2022/03/17 02:50:37;;;;;;;30.88;19.75;;;;;;;;;;5115304;28;20489;-85
2022/03/17 02:53:21;;;;;;;29.45;20.58;;;;;;;;;;5114664;28;20044;-85
2022/03/17 02:56:06;;;;;;;36.08;21.20;;;;;;;;;;5114727;28;20047;-85
2022/03/17 02:58:52;;;;;;;36.42;22.77;;;;;;;;;;5115000;28;20477;-85
2022/03/17 03:01:37;;;;;;;38.20;22.15;;;;;;;;;;5114968;28;20051;-85
2022/03/17 03:04:23;;;;;;;36.35;21.58;;;;;;;;;;5114952;28;20384;-86
2022/03/17 03:07:09;;;;;;;32.60;21.27;;;;;;;;;;5106314;28;20035;-86
2022/03/17 03:09:55;;;;;;;33.35;21.35;;;;;;;;;;5133902;28;20052;-84
2022/03/17 03:12:41;;;;;;;37.45;20.55;;;;;;;;;;5124081;28;20039;-86
2022/03/17 03:15:27;;;;;;;31.42;21.35;;;;;;;;;;5115959;28;20036;-86
2022/03/17 03:18:13;;;;;;;32.88;21.92;;;;;;;;;;5114659;28;20044;-88
2022/03/17 03:20:58;;;;;;;34.38;22.00;;;;;;;;;;5114472;28;20039;-88
2022/03/17 03:23:43;;;;;;;34.38;22.73;;;;;;;;;;5114239;28;20047;-88
2022/03/17 03:26:30;;;;;;;33.75;21.75;;;;;;;;;;5114493;28;20040;-88
2022/03/17 03:29:27;;;;;;;31.23;20.90;;;;;;;;;;5099153;28;20040;-88
2022/03/17 03:32:13;;;;;;;30.67;20.30;;;;;;;;;;5114481;28;20056;-86
2022/03/17 03:37:22;;;;;;;28.85;20.23;;;;;;;;;;5114112;28;20036;-86
2022/03/17 03:38:04;;;;;;;32.60;20.20;;;;;;;;;;5114133;28;20044;-87
2022/03/17 03:40:49;;;;;;;33.13;20.42;;;;;;;;;;5114108;28;20040;-86
2022/03/17 03:43:34;;;;;;;29.85;19.52;;;;;;;;;;5120959;28;20485;-87
2022/03/17 03:46:20;;;;;;;32.80;19.38;;;;;;;;;;5098914;28;20040;-87
2022/03/17 03:49:06;;;;;;;30.60;20.77;;;;;;;;;;5114053;28;20044;-86
2022/03/17 03:51:51;;;;;;;31.30;20.77;;;;;;;;;;5105665;28;20040;-87
2022/03/17 03:54:37;;;;;;;30.80;20.48;;;;;;;;;;5114320;28;20044;-85
2022/03/17 03:57:22;;;;;;;30.05;20.25;;;;;;;;;;5114272;28;20505;-85
2022/03/17 04:00:54;;;;;;;34.17;21.23;;;;;;;;;;5114052;28;20051;-85
2022/03/17 04:03:15;;;;;;;33.50;19.60;;;;;;;;;;5112446;28;20044;-85
2022/03/17 04:06:01;;;;;;;29.60;20.60;;;;;;;;;;5113837;28;20043;-85
2022/03/17 04:08:46;;;;;;;32.38;20.02;;;;;;;;;;5114355;28;20040;-85
2022/03/17 04:11:32;;;;;;;30.70;20.48;;;;;;;;;;5105267;28;20040;-85
2022/03/17 04:14:17;;;;;;;30.77;20.30;;;;;;;;;;5113813;28;20048;-85
2022/03/17 04:17:02;;;;;;;29.42;19.38;;;;;;;;;;5114254;28;20039;-85
2022/03/17 04:19:48;;;;;;;31.45;20.55;;;;;;;;;;5113805;28;20139;-85
2022/03/17 04:22:33;;;;;;;31.50;20.10;;;;;;;;;;5113835;28;20043;-84
2022/03/17 04:25:19;;;;;;;30.40;20.00;;;;;;;;;;5113609;28;20039;-85
2022/03/17 04:28:05;;;;;;;29.65;19.45;;;;;;;;;;5114005;28;20040;-85
2022/03/17 04:30:50;;;;;;;32.33;21.35;;;;;;;;;;5113733;28;20048;-85
2022/03/17 04:33:36;;;;;;;30.30;19.48;;;;;;;;;;5113601;28;20039;-85
2022/03/17 04:36:22;;;;;;;34.13;21.00;;;;;;;;;;5113551;28;20048;-85
2022/03/17 04:39:10;;;;;;;32.65;19.60;;;;;;;;;;5113464;28;20401;-85
2022/03/17 04:41:55;;;;;;;34.30;21.13;;;;;;;;;;5114939;28;20043;-85
2022/03/17 04:44:41;;;;;;;33.83;21.13;;;;;;;;;;5117365;28;20488;-85
2022/03/17 04:47:27;;;;;;;33.30;20.80;;;;;;;;;;5116700;28;20044;-85
2022/03/17 04:50:12;;;;;;;36.08;22.08;;;;;;;;;;5117260;28;20040;-85
2022/03/17 04:56:10;;;;;;;36.92;23.08;;;;;;;;;;5117218;28;20035;-85
2022/03/17 04:58:56;;;;;;;35.53;21.83;;;;;;;;;;5116936;28;20035;-86
2022/03/17 05:01:41;;;;;;;41.25;25.65;;;;;;;;;;5108289;28;20047;-88
2022/03/17 05:04:27;;;;;;;37.42;24.10;;;;;;;;;;5109932;28;20044;-86
2022/03/17 05:07:13;;;;;;;40.75;23.15;;;;;;;;;;5118558;28;20040;-88
2022/03/17 05:09:59;;;;;;;40.38;24.38;;;;;;;;;;5127367;28;20051;-87
2022/03/17 05:12:45;;;;;;;46.65;27.83;;;;;;;;;;5125113;28;20039;-89
2022/03/17 05:15:30;;;;;;;47.45;28.13;;;;;;;;;;5124238;28;20040;-87
2022/03/17 05:18:16;;;;;;;43.67;26.80;;;;;;;;;;5109528;28;20031;-88
2022/03/17 05:21:02;;;;;;;44.58;26.65;;;;;;;;;;5124010;28;20485;-87
2022/03/17 05:23:48;;;;;;;43.50;25.95;;;;;;;;;;5123329;28;20488;-88
2022/03/17 05:26:34;;;;;;;43.08;25.98;;;;;;;;;;5119179;28;20043;-87
2022/03/17 05:29:19;;;;;;;38.30;24.10;;;;;;;;;;5116276;28;20477;-86
2022/03/17 05:32:05;;;;;;;44.60;26.55;;;;;;;;;;5126701;28;20036;-86
2022/03/17 05:34:51;;;;;;;44.50;27.02;;;;;;;;;;5141976;28;20031;-86
2022/03/17 05:37:37;;;;;;;43.88;27.08;;;;;;;;;;5133625;28;20067;-88
2022/03/17 05:40:23;;;;;;;45.92;28.23;;;;;;;;;;5119717;28;20483;-88
2022/03/17 05:43:11;;;;;;;57.05;31.98;;;;;;;;;;5100783;28;20044;-88
2022/03/17 05:45:56;;;;;;;62.83;35.28;;;;;;;;;;5096598;28;20032;-88
2022/03/17 05:48:41;;;;;;;57.60;34.40;;;;;;;;;;5119203;28;20035;-87
2022/03/17 05:51:27;;;;;;;48.80;31.42;;;;;;;;;;5118121;28;20048;-87
2022/03/17 05:54:12;;;;;;;57.25;33.95;;;;;;;;;;5115976;28;20044;-86
2022/03/17 05:56:58;;;;;;;52.88;33.97;;;;;;;;;;5107386;28;20498;-88
2022/03/17 05:59:43;;;;;;;52.42;32.67;;;;;;;;;;5118601;28;20035;-87
2022/03/17 06:02:28;;;;;;;69.93;40.90;;;;;;;;;;5116549;28;20043;-86
2022/03/17 06:05:14;;;;;;;125.95;63.88;;;;;;;;;;5132756;28;20032;-88
2022/03/17 06:08:00;;;;;;;101.28;52.22;;;;;;;;;;5125005;28;20044;-88
2022/03/17 06:10:45;;;;;;;81.43;46.00;;;;;;;;;;5105014;28;20392;-88
2022/03/17 06:13:31;;;;;;;69.60;41.58;;;;;;;;;;5115200;28;20043;-88
2022/03/17 06:16:16;;;;;;;59.35;37.08;;;;;;;;;;5134182;27;20047;-87
2022/03/17 06:19:03;;;;;;;62.17;37.85;;;;;;;;;;5136096;27;20043;-87
2022/03/17 06:21:49;;;;;;;66.95;38.60;;;;;;;;;;5136111;27;20043;-88
2022/03/17 06:24:34;;;;;;;62.15;36.55;;;;;;;;;;5135643;27;20050;-89
2022/03/17 06:27:19;;;;;;;64.53;35.47;;;;;;;;;;5135668;27;20039;-88
2022/03/17 06:30:08;;;;;;;59.63;35.45;;;;;;;;;;5120652;27;20391;-88
2022/03/17 06:32:54;;;;;;;57.75;34.78;;;;;;;;;;5135380;27;20492;-88
2022/03/17 06:35:40;;;;;;;64.10;38.10;;;;;;;;;;5135642;27;20043;-87
2022/03/17 06:38:25;;;;;;;79.55;43.25;;;;;;;;;;5135621;27;20035;-87
2022/03/17 06:41:10;;;;;;;77.07;43.15;;;;;;;;;;5135534;27;20468;-88
2022/03/17 06:43:56;;;;;;;89.60;46.60;;;;;;;;;;5120218;27;20042;-87
2022/03/17 06:46:42;;;;;;;85.35;46.75;;;;;;;;;;5135299;27;20035;-88
2022/03/17 06:49:27;;;;;;;84.70;46.03;;;;;;;;;;5135918;27;20047;-87
2022/03/17 06:52:13;;;;;;;70.05;40.10;;;;;;;;;;5126814;27;20039;-87
2022/03/17 06:54:59;;;;;;;69.63;38.72;;;;;;;;;;5136456;27;20039;-87
2022/03/17 06:57:44;;;;;;;75.07;39.97;;;;;;;;;;5135501;27;20043;-87
2022/03/17 07:00:30;;;;;;;82.90;40.30;;;;;;;;;;5120196;27;20395;-87
2022/03/17 07:03:15;;;;;;;77.13;40.78;;;;;;;;;;5135334;27;20047;-85
2022/03/17 07:06:01;;;;;;;70.53;39.67;;;;;;;;;;5141639;27;20031;-87
2022/03/17 07:08:46;;;;;;;80.82;41.95;;;;;;;;;;5135738;27;20047;-86
2022/03/17 07:11:32;;;;;;;85.03;43.22;;;;;;;;;;5135355;27;20035;-84
2022/03/17 07:14:17;;;;;;;80.47;45.58;;;;;;;;;;5131129;27;20044;-88
2022/03/17 07:17:04;;;;;;;89.53;47.63;;;;;;;;;;5114968;28;20047;-87
2022/03/17 07:19:58;;;;;;;85.78;47.30;;;;;;;;;;5114839;28;20048;-88
2022/03/17 07:22:46;;;;;;;;;;;;;;;;;;5114980;28;20043;-85
2022/03/17 07:25:33;;;;;;;95.70;49.17;;;;;;;;;;5121241;28;19916;-86
2022/03/17 07:28:21;;;;;;;117.70;54.00;;;;;;;;;;5113890;28;20055;-86
2022/03/17 07:31:06;;;;;;;139.23;59.65;;;;;;;;;;5114383;28;20481;-87
2022/03/17 07:33:53;;;;;;;105.30;50.92;;;;;;;;;;5114036;28;20040;-87
2022/03/17 07:36:40;;;;;;;141.20;69.22;;;;;;;;;;5105829;28;20059;-86
2022/03/17 07:39:25;;;;;;;228.98;117.68;;;;;;;;;;5105848;28;20508;-88
2022/03/17 07:42:10;;;;;;;173.15;100.13;;;;;;;;;;5113960;28;20048;-87
2022/03/17 07:45:28;;;;;;;67.05;39.65;;;;;;;;;;5120557;28;20492;-87
2022/03/17 07:48:22;;;;;;;65.25;36.78;;;;;;;;;;5113205;28;20040;-86
2022/03/17 07:51:16;;;;;;;69.18;39.65;;;;;;;;;;5113470;28;20039;-86
2022/03/17 07:54:02;;;;;;;64.43;37.55;;;;;;;;;;5113352;28;20036;-87
2022/03/17 07:56:47;;;;;;;63.13;37.38;;;;;;;;;;5113239;28;20047;-86
2022/03/17 07:59:33;;;;;;;47.78;29.17;;;;;;;;;;5113444;28;20035;-87
2022/03/17 08:02:20;;;;;;;52.00;32.70;;;;;;;;;;5114483;28;20047;-87
2022/03/17 08:05:07;;;;;;;53.83;32.88;;;;;;;;;;5138840;28;20031;-86
2022/03/17 08:07:53;;;;;;;46.03;27.48;;;;;;;;;;5126040;28;20415;-87
2022/03/17 08:10:38;;;;;;;51.97;31.27;;;;;;;;;;5117929;28;20051;-87
2022/03/17 08:13:25;;;;;;;44.78;29.05;;;;;;;;;;5111864;28;20044;-87
2022/03/17 08:16:12;;;;;;;49.97;30.20;;;;;;;;;;5113795;28;20048;-87
2022/03/17 08:18:58;;;;;;;48.45;30.17;;;;;;;;;;5116953;28;20040;-87
2022/03/17 08:21:43;;;;;;;45.05;28.77;;;;;;;;;;5117067;28;20047;-87
2022/03/17 08:24:29;;;;;;;44.00;27.25;;;;;;;;;;5117269;28;20055;-88
2022/03/17 08:27:15;;;;;;;46.60;27.98;;;;;;;;;;5117140;28;20044;-88
2022/03/17 08:30:02;;;;;;;51.42;30.38;;;;;;;;;;5117244;28;20047;-87
2022/03/17 08:32:49;;;;;;;49.35;28.17;;;;;;;;;;5108315;28;20480;-86
2022/03/17 08:35:34;;;;;;;48.90;28.88;;;;;;;;;;5117081;28;20400;-87
2022/03/17 08:38:20;;;;;;;59.72;34.03;;;;;;;;;;5116926;28;20043;-87
2022/03/17 08:41:05;;;;;;;95.57;50.13;;;;;;;;;;5116644;28;20040;-87
2022/03/17 08:43:52;;;;;;;99.65;50.05;;;;;;;;;;5116681;28;20448;-88
2022/03/17 08:49:41;;;;;;;83.93;43.72;;;;;;;;;;5117091;28;20039;-86
2022/03/17 08:52:28;;;;;;;79.13;43.60;;;;;;;;;;5116282;28;20043;-86
2022/03/17 08:55:13;;;;;;;55.08;31.27;;;;;;;;;;5116501;28;20039;-86
2022/03/17 08:57:59;;;;;;;49.55;29.30;;;;;;;;;;5116444;28;20044;-86
2022/03/17 09:00:45;;;;;;;43.30;23.38;;;;;;;;;;5116767;28;20039;-86
2022/03/17 09:03:30;;;;;;;40.78;22.33;;;;;;;;;;5116655;28;20040;-88
2022/03/17 09:06:16;;;;;;;18.88;10.77;;;;;;;;;;5116691;28;20048;-86
2022/03/17 09:09:01;;;;;;;37.67;21.98;;;;;;;;;;5116709;28;20400;-87
2022/03/17 09:11:47;;;;;;;37.92;21.27;;;;;;;;;;5100769;28;20047;-81
2022/03/17 09:14:34;;;;;;;26.98;14.30;;;;;;;;;;5120576;28;20048;-81
2022/03/17 09:17:19;;;;;;;19.67;8.77;;;;;;;;;;5115678;28;20043;-82
2022/03/17 09:20:08;;;;;;;16.13;8.35;;;;;;;;;;5115647;28;20047;-80
2022/03/17 09:22:56;;;;;;;12.30;7.22;;;;;;;;;;5115841;28;20047;-81
2022/03/17 09:25:42;;;;;;;26.52;14.27;;;;;;;;;;5115559;28;20043;-80
2022/03/17 09:28:28;;;;;;;25.52;14.27;;;;;;;;;;5114560;28;20048;-81
2022/03/17 09:31:13;;;;;;;17.55;9.25;;;;;;;;;;5115435;28;20040;-81
2022/03/17 09:33:58;;;;;;;22.02;12.40;;;;;;;;;;5115567;28;20048;-81
2022/03/17 09:36:44;;;;;;;23.25;14.50;;;;;;;;;;5100212;28;20487;-81
2022/03/17 09:39:45;;;;;;;21.58;12.38;;;;;;;;;;5115479;28;20047;-80
2022/03/17 09:42:30;;;;;;;23.65;11.68;;;;;;;;;;5115503;28;20044;-80
2022/03/17 09:45:17;;;;;;;20.70;11.98;;;;;;;;;;5115255;28;20496;-82
2022/03/17 09:48:03;;;;;;;12.57;7.70;;;;;;;;;;5106593;28;20392;-81
2022/03/17 09:50:55;;;;;;;11.52;6.70;;;;;;;;;;5122255;28;20397;-80
2022/03/17 09:53:40;;;;;;;7.93;5.13;;;;;;;;;;5115410;28;20048;-79
2022/03/17 09:56:27;;;;;;;9.23;6.10;;;;;;;;;;5115333;28;20047;-80
2022/03/17 09:59:12;;;;;;;7.80;5.72;;;;;;;;;;5115273;28;20039;-81
2022/03/17 10:01:59;;;;;;;8.68;5.72;;;;;;;;;;5115216;28;20419;-80
2022/03/17 10:04:46;;;;;;;9.88;5.65;;;;;;;;;;5115018;28;20040;-81
2022/03/17 10:07:34;;;;;;;15.10;10.48;;;;;;;;;;5115246;28;20048;-81
2022/03/17 10:10:34;;;;;;;23.30;12.63;;;;;;;;;;5115046;28;20040;-82
2022/03/17 10:13:25;;;;;;;15.57;10.00;;;;;;;;;;5114958;28;20040;-81
2022/03/17 10:16:17;;;;;;;19.48;13.23;;;;;;;;;;5114534;28;20039;-81
2022/03/17 10:19:05;;;;;;;19.05;11.57;;;;;;;;;;5115210;28;20044;-82
2022/03/17 10:21:50;;;;;;;21.63;11.13;;;;;;;;;;5114715;28;20039;-80
2022/03/17 10:24:36;;;;;;;13.88;9.13;;;;;;;;;;5106373;28;20488;-80
2022/03/17 10:27:40;;;;;;;18.27;10.85;;;;;;;;;;5114583;28;20044;-80
2022/03/17 10:30:34;;;;;;;22.87;13.53;;;;;;;;;;5114790;28;20044;-80
2022/03/17 10:33:21;;;;;;;20.88;11.60;;;;;;;;;;5114844;28;20047;-79
2022/03/17 10:36:20;;;;;;;13.35;9.02;;;;;;;;;;5114805;28;20496;-80
2022/03/17 10:39:09;;;;;;;19.95;12.43;;;;;;;;;;5139524;28;20031;-81
2022/03/17 10:41:55;;;;;;;23.92;15.23;;;;;;;;;;5123505;28;20032;-79
2022/03/17 10:44:55;;;;;;;19.50;12.93;;;;;;;;;;5115298;28;20035;-81
2022/03/17 10:47:44;;;;;;;14.15;8.90;;;;;;;;;;5099166;28;20040;-81
2022/03/17 10:50:38;;;;;;;21.70;13.13;;;;;;;;;;5114706;28;20059;-80
2022/03/17 10:53:29;;;;;;;17.55;10.55;;;;;;;;;;5115014;28;20035;-80
2022/03/17 10:56:16;;;;;;;30.83;18.20;;;;;;;;;;5115147;28;20044;-81
2022/03/17 10:59:01;;;;;;;22.40;13.85;;;;;;;;;;5114707;28;20404;-80
2022/03/17 11:01:46;;;;;;;16.52;10.07;;;;;;;;;;5114957;28;20047;-80
2022/03/17 11:04:34;;;;;;;22.58;14.02;;;;;;;;;;5099515;28;20377;-79
2022/03/17 11:07:21;;;;;;;16.98;11.48;;;;;;;;;;5121116;28;20051;-78
2022/03/17 11:10:08;;;;;;;16.63;10.18;;;;;;;;;;5114063;28;20389;-79
2022/03/17 11:12:55;;;;;;;19.42;10.90;;;;;;;;;;5114280;28;20492;-80
2022/03/17 11:15:45;;;;;;;22.08;13.20;;;;;;;;;;5115547;28;20048;-79
2022/03/17 11:18:35;;;;;;;10.68;6.57;;;;;;;;;;5113834;28;20057;-81
2022/03/17 11:21:28;;;;;;;11.85;7.45;;;;;;;;;;5114865;28;20043;-80
2022/03/17 11:24:21;;;;;;;18.80;10.85;;;;;;;;;;5114372;28;20039;-79
2022/03/17 11:27:11;;;;;;;13.80;6.72;;;;;;;;;;5113706;28;20032;-79
2022/03/17 11:29:59;;;;;;;13.35;8.75;;;;;;;;;;5115137;28;20048;-80
2022/03/17 11:32:54;;;;;;;11.77;7.40;;;;;;;;;;5102183;28;20032;-79
2022/03/17 11:35:40;;;;;;;24.50;16.15;;;;;;;;;;5122480;28;20401;-80
2022/03/17 11:38:32;;;;;;;20.85;12.95;;;;;;;;;;5114154;28;20047;-80
2022/03/17 11:41:21;;;;;;;21.92;11.07;;;;;;;;;;5123158;28;20039;-80
2022/03/17 11:44:07;;;;;;;15.50;10.40;;;;;;;;;;5119292;28;20039;-80
2022/03/17 11:46:56;;;;;;;39.92;22.23;;;;;;;;;;5114461;28;20040;-81
2022/03/17 11:49:46;;;;;;;25.90;16.75;;;;;;;;;;5116770;28;20051;-82
2022/03/17 12:35:39;;;;;;;26.52;15.95;;;;;;;;;;4408415;22;22918;-73
2022/03/17 12:38:22;;;;;;;78.90;41.20;;;;;;;;;;5132125;27;20376;-74
2022/03/17 12:41:15;;;;;;;64.63;39.58;;;;;;;;;;5111763;28;20044;-72
2022/03/17 12:44:01;;;;;;;56.50;35.95;;;;;;;;;;5110699;28;20032;-73
2022/03/17 12:46:46;;;;;;;44.83;28.80;;;;;;;;;;5118119;28;20483;-72
2022/03/17 12:49:33;;;;;;;28.42;19.90;;;;;;;;;;5111235;28;20044;-73
2022/03/17 12:52:21;;;;;;;48.72;30.48;;;;;;;;;;5117261;28;20040;-72
2022/03/17 12:55:11;;;;;;;33.17;22.33;;;;;;;;;;5111021;28;20036;-73
2022/03/17 12:57:57;;;;;;;16.48;10.73;;;;;;;;;;5117555;28;20044;-73
2022/03/17 13:00:42;;;;;;;15.23;10.60;;;;;;;;;;5111463;28;20039;-72
2022/03/17 13:03:28;;;;;;;21.80;14.65;;;;;;;;;;5111005;28;20036;-72
2022/03/17 13:09:29;;;;;;;13.25;6.95;;;;;;;;;;5105378;28;20040;-73
2022/03/17 13:15:22;;;;;;;19.60;12.63;;;;;;;;;;5110630;28;20040;-73
2022/03/17 13:18:11;;;;;;;13.63;9.25;;;;;;;;;;5110401;28;20280;-73
2022/03/17 13:20:59;;;;;;;8.88;6.38;;;;;;;;;;5110091;28;20488;-74
2022/03/17 13:23:45;;;;;;;16.48;10.23;;;;;;;;;;5117672;28;20388;-76
2022/03/17 13:26:30;;;;;;;10.07;6.88;;;;;;;;;;5110567;28;20040;-75
2022/03/17 13:29:16;;;;;;;20.35;11.73;;;;;;;;;;5110576;28;20043;-75
2022/03/17 13:32:03;;;;;;;20.98;13.18;;;;;;;;;;5110468;28;20040;-75
2022/03/17 13:34:58;;;;;;;15.50;9.43;;;;;;;;;;5110359;28;20044;-76
2022/03/17 13:37:45;;;;;;;17.65;11.77;;;;;;;;;;5109933;28;20055;-74
2022/03/17 13:40:58;;;;;;;18.33;12.15;;;;;;;;;;5109829;28;20388;-75
2022/03/17 13:43:44;;;;;;;17.00;10.77;;;;;;;;;;5117434;28;20504;-75
2022/03/17 13:46:39;;;;;;;22.20;13.98;;;;;;;;;;5116979;28;20036;-74
2022/03/17 13:49:27;;;;;;;;;;;;;;;;;;5105918;28;20040;-75
2022/03/17 13:52:12;;;;;;;21.38;12.73;;;;;;;;;;5103537;28;19912;-75
2022/03/17 13:54:57;;;;;;;15.32;9.32;;;;;;;;;;5096473;28;20048;-74
2022/03/17 13:57:43;;;;;;;13.52;9.43;;;;;;;;;;5096308;28;20040;-74
2022/03/17 14:00:31;;;;;;;23.38;15.15;;;;;;;;;;5096319;28;20044;-74
2022/03/17 14:03:19;;;;;;;27.55;17.77;;;;;;;;;;5102995;28;20048;-75
2022/03/17 14:06:20;;;;;;;42.58;29.60;;;;;;;;;;5096183;28;20433;-74
2022/03/17 14:09:10;;;;;;;32.97;21.42;;;;;;;;;;5096147;28;20051;-74
2022/03/17 14:11:56;;;;;;;30.92;19.48;;;;;;;;;;5103289;28;20044;-74
2022/03/17 14:14:41;;;;;;;33.83;21.52;;;;;;;;;;5095840;28;20488;-74
2022/03/17 14:17:26;;;;;;;30.48;18.08;;;;;;;;;;5102825;28;20032;-74
2022/03/17 14:20:12;;;;;;;18.45;12.13;;;;;;;;;;5095957;28;20040;-74
2022/03/17 14:26:01;;;;;;;37.88;22.35;;;;;;;;;;5096023;28;20048;-74
2022/03/17 14:28:47;;;;;;;28.85;16.65;;;;;;;;;;5102689;28;20399;-74
2022/03/17 14:31:34;;;;;;;28.38;17.38;;;;;;;;;;5102676;28;20040;-73
2022/03/17 14:34:22;;;;;;;33.83;21.02;;;;;;;;;;5095947;28;20380;-75
2022/03/17 14:37:08;;;;;;;23.08;14.73;;;;;;;;;;5098568;28;20048;-74
2022/03/17 14:39:53;;;;;;;24.55;16.15;;;;;;;;;;5095941;28;20040;-74
2022/03/17 14:42:39;;;;;;;22.05;13.93;;;;;;;;;;5095631;28;20044;-74
2022/03/17 14:45:25;;;;;;;52.72;30.02;;;;;;;;;;5095516;28;20036;-73
2022/03/17 14:48:10;;;;;;;26.05;16.63;;;;;;;;;;5095536;28;20044;-73
2022/03/17 14:50:55;;;;;;;24.38;14.85;;;;;;;;;;5102187;28;20048;-74
2022/03/17 14:53:42;;;;;;;15.85;10.57;;;;;;;;;;5095389;28;20481;-76
2022/03/17 14:56:27;;;;;;;20.48;12.20;;;;;;;;;;5102153;28;20044;-75
2022/03/17 14:59:12;;;;;;;23.13;15.07;;;;;;;;;;5086722;28;20400;-74
2022/03/17 15:01:59;;;;;;;30.17;16.60;;;;;;;;;;5094996;28;20044;-74
2022/03/17 15:04:45;;;;;;;36.60;23.42;;;;;;;;;;5101675;28;20048;-74
2022/03/17 15:07:30;;;;;;;27.05;17.50;;;;;;;;;;5101985;28;20051;-75
2022/03/17 15:10:16;;;;;;;22.15;15.23;;;;;;;;;;5094855;28;20048;-74
2022/03/17 15:13:02;;;;;;;24.42;14.77;;;;;;;;;;5101907;28;20396;-76
2022/03/17 15:15:48;;;;;;;229.30;102.90;;;;;;;;;;5095135;28;20048;-76
2022/03/17 15:18:34;;;;;;;140.95;58.28;;;;;;;;;;5101229;28;20399;-75
2022/03/17 15:21:19;;;;;;;42.72;26.20;;;;;;;;;;5095095;28;20036;-74
2022/03/17 15:24:05;;;;;;;84.38;46.58;;;;;;;;;;5094879;28;20048;-74
2022/03/17 15:26:51;;;;;;;28.63;17.05;;;;;;;;;;5095518;28;20480;-75
2022/03/17 15:32:40;;;;;;;15.80;8.70;;;;;;;;;;5094760;28;20044;-76
2022/03/17 15:35:26;;;;;;;22.60;13.10;;;;;;;;;;5101362;28;20413;-74
2022/03/17 15:38:11;;;;;;;13.13;8.50;;;;;;;;;;5093899;28;20044;-74
2022/03/17 15:40:59;;;;;;;14.10;9.15;;;;;;;;;;5101214;28;20048;-76
2022/03/17 15:43:45;;;;;;;20.70;13.02;;;;;;;;;;5094566;28;20044;-75
2022/03/17 15:46:30;;;;;;;11.68;7.97;;;;;;;;;;5100887;28;20040;-74
2022/03/17 15:49:16;;;;;;;16.38;9.85;;;;;;;;;;5101238;28;20040;-73
2022/03/17 15:52:02;;;;;;;10.48;7.07;;;;;;;;;;5094125;28;20048;-74
2022/03/17 15:54:47;;;;;;;23.75;15.25;;;;;;;;;;5079048;28;20380;-73
2022/03/17 15:57:33;;;;;;;23.58;15.10;;;;;;;;;;5093931;28;20040;-74
2022/03/17 16:00:20;;;;;;;20.75;12.20;;;;;;;;;;5094161;28;20043;-74
2022/03/17 16:03:08;;;;;;;26.42;17.27;;;;;;;;;;5094392;28;20044;-74
2022/03/17 16:05:54;;;;;;;11.50;7.53;;;;;;;;;;5100903;28;20564;-73
2022/03/17 16:08:39;;;;;;;30.42;17.85;;;;;;;;;;5099591;28;20409;-73
2022/03/17 16:14:28;;;;;;;20.20;12.07;;;;;;;;;;5100499;28;20393;-75
2022/03/17 16:17:15;;;;;;;15.23;8.52;;;;;;;;;;5094005;28;20040;-73
2022/03/17 16:20:00;;;;;;;21.10;11.77;;;;;;;;;;5093782;28;20048;-75
2022/03/17 16:22:46;;;;;;;18.25;11.18;;;;;;;;;;5093202;28;20423;-74
2022/03/17 16:25:31;;;;;;;30.08;17.23;;;;;;;;;;5093928;28;20040;-75
2022/03/17 16:28:17;;;;;;;17.98;10.40;;;;;;;;;;5093973;28;20043;-74
2022/03/17 16:31:19;;;;;;;24.35;12.98;;;;;;;;;;5094035;28;20044;-75
2022/03/17 16:34:05;;;;;;;14.80;8.90;;;;;;;;;;5093792;28;20036;-75
2022/03/17 16:36:51;;;;;;;18.90;12.32;;;;;;;;;;5093276;28;20492;-74
2022/03/17 16:39:36;;;;;;;70.15;33.63;;;;;;;;;;5093574;28;20400;-75
2022/03/17 16:42:22;;;;;;;86.18;42.42;;;;;;;;;;5093597;28;20048;-75
2022/03/17 16:45:09;;;;;;;60.80;32.80;;;;;;;;;;5100769;28;20044;-75
2022/03/17 16:47:54;;;;;;;18.15;12.60;;;;;;;;;;5093389;28;20056;-75
2022/03/17 16:50:40;;;;;;;18.48;10.60;;;;;;;;;;5085275;28;20051;-74
2022/03/17 16:53:25;;;;;;;17.48;9.30;;;;;;;;;;5100418;28;20468;-75
2022/03/17 16:56:11;;;;;;;17.27;9.38;;;;;;;;;;5100153;28;20484;-75
2022/03/17 16:58:57;;;;;;;14.98;9.48;;;;;;;;;;5100509;28;20345;-75
2022/03/17 17:01:43;;;;;;;24.52;13.73;;;;;;;;;;5093321;28;20036;-75
2022/03/17 17:04:33;;;;;;;20.30;12.15;;;;;;;;;;5093490;28;20044;-74
2022/03/17 17:07:19;;;;;;;14.02;9.27;;;;;;;;;;5093488;28;20048;-74
2022/03/17 17:10:05;;;;;;;16.67;11.45;;;;;;;;;;5093385;28;20044;-74
2022/03/17 17:12:50;;;;;;;19.85;13.07;;;;;;;;;;5100431;28;20052;-73
2022/03/17 17:15:37;;;;;;;14.48;9.10;;;;;;;;;;5085307;28;20044;-73
2022/03/17 17:18:24;;;;;;;14.93;8.95;;;;;;;;;;5084694;28;20400;-73
2022/03/17 17:21:09;;;;;;;15.57;8.75;;;;;;;;;;5093482;28;20036;-75